Time;durP1;ratioP1;P1;durP2;ratioP2;P2;SDS_P1;SDS_P2;PMS_P1;PMS_P2;Temp;Humidity;BMP_temperature;BMP_pressure;BME280_temperature;BME280_humidity;BME280_pressure;Samples;Min_cycle;Max_cycle;Signal;HPM_P1;HPM_P2
2022/12/21 00:00:49;;;;;;;79.70;29.45;;;;;;;;;;5052087;28;20037;-72
2022/12/21 00:03:15;;;;;;;71.75;28.80;;;;;;;;;;5056807;28;20052;-73
2022/12/21 00:05:42;;;;;;;92.55;32.40;;;;;;;;;;5049704;28;20111;-73
2022/12/21 00:08:08;;;;;;;79.10;31.02;;;;;;;;;;5050795;28;20043;-73
2022/12/21 00:10:34;;;;;;;86.40;30.83;;;;;;;;;;5053498;28;20049;-73
2022/12/21 00:13:00;;;;;;;84.22;32.08;;;;;;;;;;5053012;28;20090;-73
2022/12/21 00:15:26;;;;;;;103.75;31.98;;;;;;;;;;5051563;28;20083;-72
2022/12/21 00:17:52;;;;;;;106.63;33.42;;;;;;;;;;5050275;28;20037;-73
2022/12/21 00:20:18;;;;;;;81.97;31.15;;;;;;;;;;5051348;28;20048;-73
2022/12/21 00:22:44;;;;;;;113.63;32.08;;;;;;;;;;5051564;28;20095;-73
2022/12/21 00:25:10;;;;;;;107.43;32.15;;;;;;;;;;5050834;28;20487;-73
2022/12/21 00:27:36;;;;;;;75.45;30.00;;;;;;;;;;5051453;28;20037;-72
2022/12/21 00:30:03;;;;;;;84.10;30.33;;;;;;;;;;5051812;28;20040;-73
2022/12/21 00:32:29;;;;;;;85.15;30.15;;;;;;;;;;5050984;28;20041;-72
2022/12/21 00:34:55;;;;;;;80.00;30.42;;;;;;;;;;5046974;28;20041;-72
2022/12/21 00:37:21;;;;;;;88.03;30.88;;;;;;;;;;5051365;28;20037;-72
2022/12/21 00:39:47;;;;;;;76.72;30.90;;;;;;;;;;5052853;28;20052;-73
2022/12/21 00:42:14;;;;;;;103.78;30.48;;;;;;;;;;5051990;28;20041;-73
2022/12/21 00:44:40;;;;;;;103.85;31.52;;;;;;;;;;5052746;28;20048;-72
2022/12/21 00:47:06;;;;;;;80.00;28.85;;;;;;;;;;5051945;28;20041;-73
2022/12/21 00:49:33;;;;;;;85.57;30.20;;;;;;;;;;5052376;28;20048;-73
2022/12/21 00:51:59;;;;;;;92.63;29.45;;;;;;;;;;5052552;28;20048;-73
2022/12/21 00:54:25;;;;;;;95.55;30.63;;;;;;;;;;5052490;28;20407;-72
2022/12/21 00:56:52;;;;;;;86.13;29.08;;;;;;;;;;5052539;28;20045;-73
2022/12/21 00:59:18;;;;;;;95.75;30.08;;;;;;;;;;5051773;28;20045;-73
2022/12/21 01:01:44;;;;;;;85.75;28.73;;;;;;;;;;5051575;28;20053;-72
2022/12/21 01:04:10;;;;;;;84.35;27.58;;;;;;;;;;5051400;28;20465;-72
2022/12/21 01:06:36;;;;;;;95.07;28.75;;;;;;;;;;5052635;28;20076;-73
2022/12/21 01:09:04;;;;;;;98.28;28.92;;;;;;;;;;5052106;28;20487;-72
2022/12/21 01:11:30;;;;;;;90.80;28.20;;;;;;;;;;5052480;28;20041;-73
2022/12/21 01:13:57;;;;;;;110.80;28.48;;;;;;;;;;5054630;28;20047;-73
2022/12/21 01:16:24;;;;;;;106.78;27.85;;;;;;;;;;5054457;28;20116;-72
2022/12/21 01:18:51;;;;;;;65.03;25.35;;;;;;;;;;5056426;28;20403;-73
2022/12/21 01:21:24;;;;;;;118.85;28.55;;;;;;;;;;5056140;28;20053;-73
2022/12/21 01:23:50;;;;;;;92.55;26.65;;;;;;;;;;5056294;28;20487;-73
2022/12/21 01:26:17;;;;;;;76.97;26.10;;;;;;;;;;5055809;28;20572;-73
2022/12/21 01:28:43;;;;;;;77.97;26.33;;;;;;;;;;5056456;28;20037;-73
2022/12/21 01:31:09;;;;;;;118.75;28.77;;;;;;;;;;5054659;28;20063;-72
2022/12/21 01:33:35;;;;;;;112.65;28.02;;;;;;;;;;5054913;28;20121;-73
2022/12/21 01:36:05;;;;;;;94.55;28.48;;;;;;;;;;5055916;28;20045;-73
2022/12/21 01:38:31;;;;;;;106.78;27.95;;;;;;;;;;5054181;28;20072;-72
2022/12/21 01:40:57;;;;;;;135.13;28.73;;;;;;;;;;5054852;28;20041;-72
2022/12/21 01:43:42;;;;;;;119.13;28.75;;;;;;;;;;5039813;28;20505;-72
2022/12/21 01:46:11;;;;;;;98.15;27.17;;;;;;;;;;5053598;28;20138;-72
2022/12/21 01:48:40;;;;;;;142.75;29.27;;;;;;;;;;5053862;28;20040;-73
2022/12/21 01:51:06;;;;;;;140.82;29.05;;;;;;;;;;5054453;28;20049;-73
2022/12/21 01:53:41;;;;;;;125.88;28.58;;;;;;;;;;5055073;28;20395;-73
2022/12/21 01:56:09;;;;;;;122.55;28.13;;;;;;;;;;5053593;28;20045;-72
2022/12/21 01:58:35;;;;;;;99.25;26.70;;;;;;;;;;5042025;28;20406;-72
2022/12/21 02:01:02;;;;;;;82.13;25.58;;;;;;;;;;5055239;28;20051;-73
2022/12/21 02:03:36;;;;;;;82.32;24.58;;;;;;;;;;5054661;28;20033;-72
2022/12/21 02:06:10;;;;;;;70.63;20.98;;;;;;;;;;5053424;28;20037;-72
2022/12/21 02:08:36;;;;;;;71.90;21.98;;;;;;;;;;5055122;28;20107;-73
2022/12/21 02:11:03;;;;;;;68.50;22.40;;;;;;;;;;5055189;28;20518;-73
2022/12/21 02:13:29;;;;;;;66.85;20.67;;;;;;;;;;5055297;28;20041;-73
2022/12/21 02:16:01;;;;;;;76.68;21.60;;;;;;;;;;5053490;28;20053;-73
2022/12/21 02:18:45;;;;;;;70.78;21.85;;;;;;;;;;5055123;28;20052;-73
2022/12/21 02:21:15;;;;;;;77.97;22.67;;;;;;;;;;5037074;28;20047;-73
2022/12/21 02:23:50;;;;;;;88.65;22.35;;;;;;;;;;5054426;28;20439;-72
2022/12/21 02:26:25;;;;;;;73.55;23.45;;;;;;;;;;5054001;28;20049;-73
2022/12/21 02:28:51;;;;;;;96.40;22.65;;;;;;;;;;5054314;28;20037;-73
2022/12/21 02:31:23;;;;;;;81.63;22.30;;;;;;;;;;5054872;28;20056;-72
2022/12/21 02:34:02;;;;;;;97.05;23.63;;;;;;;;;;5052433;28;20506;-73
2022/12/21 02:36:30;;;;;;;96.43;24.00;;;;;;;;;;5053868;28;20045;-72
2022/12/21 02:38:56;;;;;;;66.65;21.92;;;;;;;;;;5054804;28;20053;-73
2022/12/21 02:41:34;;;;;;;86.07;20.73;;;;;;;;;;5054010;28;20041;-73
2022/12/21 02:44:15;;;;;;;85.05;19.88;;;;;;;;;;5054469;28;20041;-73
2022/12/21 02:46:52;;;;;;;82.07;19.88;;;;;;;;;;5054779;28;20079;-73
2022/12/21 02:49:24;;;;;;;90.72;20.40;;;;;;;;;;5053721;28;20107;-73
2022/12/21 02:51:53;;;;;;;111.53;20.20;;;;;;;;;;5053711;28;20044;-73
2022/12/21 02:54:19;;;;;;;119.95;20.42;;;;;;;;;;5054264;28;20041;-73
2022/12/21 02:56:45;;;;;;;73.47;17.67;;;;;;;;;;5053094;28;20395;-73
2022/12/21 02:59:14;;;;;;;98.85;18.88;;;;;;;;;;5050494;28;20088;-72
2022/12/21 03:01:59;;;;;;;98.72;20.27;;;;;;;;;;5050757;28;20045;-74
2022/12/21 03:04:44;;;;;;;111.13;20.20;;;;;;;;;;5051198;28;20052;-73
2022/12/21 03:07:13;;;;;;;179.57;21.10;;;;;;;;;;5053615;28;20041;-72
2022/12/21 03:09:44;;;;;;;166.63;22.67;;;;;;;;;;5052090;28;20519;-72
2022/12/21 03:12:14;;;;;;;165.88;22.38;;;;;;;;;;5054555;28;20056;-73
2022/12/21 03:14:40;;;;;;;122.10;22.90;;;;;;;;;;5051743;28;20048;-73
2022/12/21 03:17:22;;;;;;;195.63;23.17;;;;;;;;;;5054042;28;20496;-73
2022/12/21 03:20:03;;;;;;;108.75;22.15;;;;;;;;;;5054297;28;20463;-73
2022/12/21 03:22:32;;;;;;;122.55;22.98;;;;;;;;;;5053340;28;20544;-73
2022/12/21 03:25:07;;;;;;;119.15;24.25;;;;;;;;;;5053596;28;20071;-73
2022/12/21 03:27:36;;;;;;;112.75;23.83;;;;;;;;;;5053212;28;20072;-73
2022/12/21 03:30:05;;;;;;;111.95;22.50;;;;;;;;;;5052105;28;20049;-73
2022/12/21 03:32:42;;;;;;;124.65;24.17;;;;;;;;;;5053260;28;20045;-73
2022/12/21 03:35:14;;;;;;;106.32;23.40;;;;;;;;;;5033710;28;20407;-73
2022/12/21 03:37:41;;;;;;;81.90;20.90;;;;;;;;;;5052343;28;20079;-73
2022/12/21 03:40:12;;;;;;;177.70;24.77;;;;;;;;;;5053638;28;20445;-73
2022/12/21 03:42:41;;;;;;;198.27;24.63;;;;;;;;;;5052260;28;20052;-73
2022/12/21 03:45:08;;;;;;;205.98;22.95;;;;;;;;;;5053163;28;20047;-73
2022/12/21 03:47:37;;;;;;;119.82;20.13;;;;;;;;;;5051372;28;20449;-73
2022/12/21 03:50:09;;;;;;;211.88;24.50;;;;;;;;;;5035269;28;20075;-73
2022/12/21 03:52:40;;;;;;;116.35;21.33;;;;;;;;;;5052944;28;20083;-73
2022/12/21 03:55:16;;;;;;;108.47;19.93;;;;;;;;;;5053065;28;20044;-73
2022/12/21 03:57:43;;;;;;;141.00;20.92;;;;;;;;;;5052256;28;20048;-73
2022/12/21 04:00:11;;;;;;;131.23;21.92;;;;;;;;;;5052889;28;20049;-73
2022/12/21 04:03:00;;;;;;;249.00;23.98;;;;;;;;;;5051511;28;20092;-73
2022/12/21 04:05:49;;;;;;;196.07;23.92;;;;;;;;;;5049722;28;20037;-72
2022/12/21 04:08:15;;;;;;;218.93;23.63;;;;;;;;;;5042586;28;20053;-73
2022/12/21 04:10:41;;;;;;;223.75;23.55;;;;;;;;;;5052485;28;20041;-73
2022/12/21 04:13:07;;;;;;;146.80;21.67;;;;;;;;;;5049904;28;20541;-72
2022/12/21 04:19:57;;;;;;;119.90;22.05;;;;;;;;;;5050839;28;20132;-73
2022/12/21 04:21:04;;;;;;;267.15;26.08;;;;;;;;;;5050375;28;20041;-72
2022/12/21 04:29:00;;;;;;;109.75;22.63;;;;;;;;;;5049299;28;20514;-73
2022/12/21 04:31:26;;;;;;;110.22;22.83;;;;;;;;;;5052694;28;20081;-73
2022/12/21 04:33:52;;;;;;;164.02;23.90;;;;;;;;;;5052864;28;20041;-73
2022/12/21 04:39:03;;;;;;;352.98;27.33;;;;;;;;;;5051262;28;20045;-73
2022/12/21 04:41:29;;;;;;;240.82;25.95;;;;;;;;;;5053032;28;20048;-73
2022/12/21 04:43:55;;;;;;;243.23;26.27;;;;;;;;;;5052741;28;20045;-73
2022/12/21 04:46:21;;;;;;;194.35;25.20;;;;;;;;;;5053130;28;20106;-73
2022/12/21 04:48:47;;;;;;;198.32;26.67;;;;;;;;;;5054466;28;20052;-73
2022/12/21 04:51:15;;;;;;;185.50;25.50;;;;;;;;;;5055632;28;20059;-73
2022/12/21 04:53:41;;;;;;;208.55;27.05;;;;;;;;;;5056320;28;20041;-73
2022/12/21 04:56:07;;;;;;;112.60;25.90;;;;;;;;;;5055477;28;21576;-73
2022/12/21 04:58:33;;;;;;;217.38;29.40;;;;;;;;;;5056605;28;20048;-73
2022/12/21 05:01:03;;;;;;;192.95;26.27;;;;;;;;;;5056567;28;20065;-73
2022/12/21 05:03:29;;;;;;;105.25;24.75;;;;;;;;;;5056417;28;20419;-73
2022/12/21 05:05:58;;;;;;;209.23;28.52;;;;;;;;;;5056499;28;20053;-73
2022/12/21 05:08:24;;;;;;;277.20;28.60;;;;;;;;;;5055911;28;20045;-73
2022/12/21 05:10:50;;;;;;;163.45;25.38;;;;;;;;;;5056450;28;20049;-73
2022/12/21 05:13:17;;;;;;;207.02;27.42;;;;;;;;;;5055676;28;20041;-73
2022/12/21 05:15:43;;;;;;;244.25;28.65;;;;;;;;;;5056249;28;20503;-73
2022/12/21 05:18:09;;;;;;;253.93;28.08;;;;;;;;;;5055275;28;20442;-73
2022/12/21 05:20:35;;;;;;;242.75;27.35;;;;;;;;;;5055212;28;20037;-73
2022/12/21 05:23:01;;;;;;;156.38;25.92;;;;;;;;;;5053658;28;20049;-73
2022/12/21 05:25:27;;;;;;;184.15;26.05;;;;;;;;;;5054621;28;20094;-72
2022/12/21 05:27:53;;;;;;;278.40;28.77;;;;;;;;;;5055030;28;20391;-73
2022/12/21 05:30:19;;;;;;;222.18;29.58;;;;;;;;;;5054213;28;20396;-73
2022/12/21 05:32:45;;;;;;;346.13;31.95;;;;;;;;;;5053753;28;20041;-73
2022/12/21 05:35:11;;;;;;;296.77;29.73;;;;;;;;;;5054402;28;20068;-73
2022/12/21 05:37:37;;;;;;;253.80;30.92;;;;;;;;;;5049810;28;20049;-73
2022/12/21 05:40:03;;;;;;;188.35;29.35;;;;;;;;;;5055781;28;20056;-73
2022/12/21 05:42:30;;;;;;;113.97;26.40;;;;;;;;;;5055821;28;20045;-73
2022/12/21 05:44:56;;;;;;;232.48;30.52;;;;;;;;;;5055711;28;20041;-72
2022/12/21 05:47:22;;;;;;;168.15;27.35;;;;;;;;;;5052993;28;20044;-72
2022/12/21 05:49:48;;;;;;;331.73;35.30;;;;;;;;;;5054751;28;20041;-73
2022/12/21 05:52:14;;;;;;;190.70;31.38;;;;;;;;;;5055785;28;20052;-73
2022/12/21 05:54:40;;;;;;;421.42;36.03;;;;;;;;;;5055735;28;20045;-73
2022/12/21 05:57:06;;;;;;;165.10;31.25;;;;;;;;;;5055348;28;20131;-73
2022/12/21 05:59:32;;;;;;;301.08;34.22;;;;;;;;;;5055827;28;20048;-73
2022/12/21 06:01:58;;;;;;;388.25;36.90;;;;;;;;;;5054547;28;20060;-73
2022/12/21 06:04:24;;;;;;;194.35;32.60;;;;;;;;;;5054758;28;20053;-73
2022/12/21 06:06:50;;;;;;;305.55;34.90;;;;;;;;;;5055473;28;20163;-73
2022/12/21 06:09:16;;;;;;;278.80;36.15;;;;;;;;;;5039002;28;20049;-73
2022/12/21 06:11:42;;;;;;;228.98;35.72;;;;;;;;;;5035510;28;20056;-73
2022/12/21 06:14:08;;;;;;;354.13;38.08;;;;;;;;;;5045722;28;20182;-73
2022/12/21 06:16:34;;;;;;;167.15;34.58;;;;;;;;;;5054512;28;20384;-73
2022/12/21 06:19:00;;;;;;;396.33;41.75;;;;;;;;;;5053237;28;20043;-73
2022/12/21 06:21:26;;;;;;;353.20;39.05;;;;;;;;;;5053586;28;20041;-73
2022/12/21 06:23:52;;;;;;;215.00;36.75;;;;;;;;;;5054344;28;20044;-74
2022/12/21 06:26:19;;;;;;;248.07;37.20;;;;;;;;;;5055049;28;20052;-73
2022/12/21 06:28:55;;;;;;;168.93;35.35;;;;;;;;;;5054787;28;20048;-73
2022/12/21 06:31:22;;;;;;;245.63;36.33;;;;;;;;;;5053848;28;20403;-73
2022/12/21 06:33:48;;;;;;;152.82;32.63;;;;;;;;;;5054993;28;20041;-73
2022/12/21 06:36:15;;;;;;;161.00;35.17;;;;;;;;;;5054732;28;20041;-73
2022/12/21 06:38:41;;;;;;;168.70;33.33;;;;;;;;;;5034499;28;20052;-73
2022/12/21 06:41:08;;;;;;;178.27;35.08;;;;;;;;;;5050285;28;20036;-73
2022/12/21 06:43:35;;;;;;;149.20;33.38;;;;;;;;;;5051197;28;20416;-73
2022/12/21 06:46:09;;;;;;;147.68;32.67;;;;;;;;;;5054392;28;20041;-73
2022/12/21 06:48:35;;;;;;;126.85;32.15;;;;;;;;;;5054329;28;20091;-73
2022/12/21 06:51:03;;;;;;;142.77;31.25;;;;;;;;;;5054621;28;20080;-73
2022/12/21 06:53:31;;;;;;;165.02;34.47;;;;;;;;;;5053626;28;20052;-73
2022/12/21 06:56:01;;;;;;;120.35;31.75;;;;;;;;;;5053649;28;20056;-73
2022/12/21 06:58:28;;;;;;;156.75;34.65;;;;;;;;;;5054520;28;20037;-73
2022/12/21 07:00:54;;;;;;;146.60;33.00;;;;;;;;;;5053544;28;20041;-73
2022/12/21 07:03:20;;;;;;;161.25;34.35;;;;;;;;;;5053475;28;20049;-72
2022/12/21 07:05:46;;;;;;;154.20;35.03;;;;;;;;;;5053289;28;20048;-73
2022/12/21 07:08:12;;;;;;;167.15;33.33;;;;;;;;;;5054128;28;20114;-73
2022/12/21 07:10:39;;;;;;;185.98;34.80;;;;;;;;;;5053378;28;20045;-73
2022/12/21 07:13:05;;;;;;;189.75;35.50;;;;;;;;;;5053411;28;20048;-73
2022/12/21 07:15:36;;;;;;;155.80;33.17;;;;;;;;;;5054364;28;20044;-73
2022/12/21 07:18:02;;;;;;;131.68;31.08;;;;;;;;;;5052998;28;20132;-73
2022/12/21 07:20:28;;;;;;;173.23;32.67;;;;;;;;;;5054033;28;20045;-73
2022/12/21 07:22:54;;;;;;;165.25;34.95;;;;;;;;;;5053396;28;20057;-74
2022/12/21 07:25:20;;;;;;;179.32;33.28;;;;;;;;;;5051897;28;20047;-72
2022/12/21 07:27:46;;;;;;;141.68;32.45;;;;;;;;;;5051642;28;20456;-72
2022/12/21 07:30:13;;;;;;;145.57;31.33;;;;;;;;;;5043068;28;20055;-73
2022/12/21 07:32:39;;;;;;;120.90;31.35;;;;;;;;;;5044233;28;20516;-73
2022/12/21 07:35:06;;;;;;;165.52;34.88;;;;;;;;;;5051177;28;20090;-73
2022/12/21 07:37:32;;;;;;;195.88;33.60;;;;;;;;;;5046855;28;20077;-73
2022/12/21 07:39:58;;;;;;;211.18;35.53;;;;;;;;;;5047379;28;20467;-72
2022/12/21 07:42:24;;;;;;;178.10;34.75;;;;;;;;;;5053031;28;20040;-73
2022/12/21 07:44:50;;;;;;;145.32;34.85;;;;;;;;;;5045306;28;20041;-73
2022/12/21 07:47:16;;;;;;;135.70;31.88;;;;;;;;;;5050954;28;20041;-73
2022/12/21 07:49:42;;;;;;;131.40;31.23;;;;;;;;;;5049671;28;20403;-73
2022/12/21 07:52:08;;;;;;;159.77;34.47;;;;;;;;;;5050056;28;20159;-73
2022/12/21 07:54:34;;;;;;;160.70;34.75;;;;;;;;;;5049990;28;20053;-73
2022/12/21 07:57:00;;;;;;;165.45;35.58;;;;;;;;;;5044328;28;20056;-73
2022/12/21 07:59:26;;;;;;;176.93;34.42;;;;;;;;;;5044902;28;20037;-73
2022/12/21 08:01:52;;;;;;;194.57;35.58;;;;;;;;;;5044126;28;20068;-74
2022/12/21 08:04:18;;;;;;;131.95;31.77;;;;;;;;;;5045751;28;20065;-73
2022/12/21 08:06:45;;;;;;;159.20;35.20;;;;;;;;;;5048745;28;20041;-73
2022/12/21 08:09:11;;;;;;;188.85;36.15;;;;;;;;;;5049942;28;20088;-73
2022/12/21 08:11:37;;;;;;;172.57;35.83;;;;;;;;;;5050197;28;20518;-73
2022/12/21 08:14:03;;;;;;;236.98;39.85;;;;;;;;;;5049818;28;20094;-73
2022/12/21 08:16:29;;;;;;;250.60;39.28;;;;;;;;;;5048890;28;20041;-74
2022/12/21 08:18:56;;;;;;;196.38;38.63;;;;;;;;;;5048275;28;20091;-73
2022/12/21 08:21:22;;;;;;;158.80;37.60;;;;;;;;;;5051412;28;20465;-73
2022/12/21 08:23:48;;;;;;;222.38;39.35;;;;;;;;;;5050458;28;20787;-74
2022/12/21 08:26:15;;;;;;;235.48;37.88;;;;;;;;;;5052269;28;20049;-74
2022/12/21 08:28:41;;;;;;;198.23;36.92;;;;;;;;;;5034290;28;20056;-73
2022/12/21 08:31:18;;;;;;;202.82;36.60;;;;;;;;;;5051714;28;20057;-73
2022/12/21 08:33:45;;;;;;;127.88;32.30;;;;;;;;;;5040142;28;20045;-74
2022/12/21 08:36:12;;;;;;;148.60;34.05;;;;;;;;;;5050788;28;20055;-73
2022/12/21 08:38:38;;;;;;;190.35;38.30;;;;;;;;;;5052127;28;20140;-73
2022/12/21 08:41:04;;;;;;;176.80;34.53;;;;;;;;;;5034137;28;20106;-73
2022/12/21 08:43:31;;;;;;;142.15;34.70;;;;;;;;;;5051983;28;20045;-74
2022/12/21 08:45:57;;;;;;;185.77;37.05;;;;;;;;;;5051364;28;20056;-73
2022/12/21 08:48:23;;;;;;;123.50;33.10;;;;;;;;;;5050494;28;20102;-74
2022/12/21 08:50:52;;;;;;;173.40;36.53;;;;;;;;;;5051871;28;20052;-73
2022/12/21 08:53:19;;;;;;;137.10;35.53;;;;;;;;;;5051480;28;20053;-73
2022/12/21 08:55:45;;;;;;;116.82;32.22;;;;;;;;;;5051435;28;20045;-73
2022/12/21 08:58:11;;;;;;;160.30;37.22;;;;;;;;;;5051310;28;20083;-74
2022/12/21 09:00:37;;;;;;;154.88;37.60;;;;;;;;;;5049499;28;20067;-74
2022/12/21 09:03:06;;;;;;;159.43;37.22;;;;;;;;;;5051414;28;20067;-74
2022/12/21 09:05:32;;;;;;;133.02;36.47;;;;;;;;;;5050521;28;20053;-73
2022/12/21 09:07:58;;;;;;;154.60;36.72;;;;;;;;;;5039069;28;20447;-73
2022/12/21 09:10:24;;;;;;;169.02;36.63;;;;;;;;;;5040554;28;20085;-74
2022/12/21 09:12:51;;;;;;;111.10;33.88;;;;;;;;;;5032759;28;20049;-74
2022/12/21 09:15:17;;;;;;;109.38;32.80;;;;;;;;;;5045735;28;20522;-73
2022/12/21 09:17:43;;;;;;;118.78;35.40;;;;;;;;;;5047869;28;20449;-73
2022/12/21 09:20:09;;;;;;;120.65;35.97;;;;;;;;;;5050844;28;20053;-73
2022/12/21 09:22:35;;;;;;;127.53;37.30;;;;;;;;;;5051417;28;20053;-75
2022/12/21 09:25:01;;;;;;;140.15;35.85;;;;;;;;;;5050820;28;20041;-73
2022/12/21 09:27:27;;;;;;;137.43;35.25;;;;;;;;;;5050588;28;20056;-74
2022/12/21 09:29:54;;;;;;;128.63;36.28;;;;;;;;;;5050811;28;20137;-74
2022/12/21 09:32:20;;;;;;;108.88;31.45;;;;;;;;;;5044020;28;20067;-73
2022/12/21 09:34:46;;;;;;;121.10;34.25;;;;;;;;;;5052867;28;20110;-74
2022/12/21 09:37:12;;;;;;;126.80;34.35;;;;;;;;;;5054894;28;20044;-74
2022/12/21 09:39:38;;;;;;;143.52;37.63;;;;;;;;;;5051662;28;20053;-74
2022/12/21 09:42:25;;;;;;;143.73;36.28;;;;;;;;;;5046735;28;20045;-74
2022/12/21 09:45:01;;;;;;;145.30;36.30;;;;;;;;;;5053195;28;20044;-74
2022/12/21 09:47:34;;;;;;;150.07;37.92;;;;;;;;;;5054017;28;20060;-74
2022/12/21 09:50:01;;;;;;;110.35;34.13;;;;;;;;;;5054092;28;20072;-74
2022/12/21 09:52:34;;;;;;;113.88;34.08;;;;;;;;;;5054724;28;20067;-74
2022/12/21 09:55:05;;;;;;;130.23;35.33;;;;;;;;;;5053732;28;20045;-74
2022/12/21 09:57:33;;;;;;;99.50;32.05;;;;;;;;;;5053740;28;20044;-74
2022/12/21 10:00:00;;;;;;;107.07;33.55;;;;;;;;;;5052530;28;20053;-74
2022/12/21 10:02:37;;;;;;;97.80;30.27;;;;;;;;;;5052399;28;20088;-74
2022/12/21 10:05:19;;;;;;;102.47;34.00;;;;;;;;;;5052797;28;20041;-74
2022/12/21 10:07:44;;;;;;;;;;;;;;;;;;5036710;28;20506;-74
2022/12/21 10:10:29;;;;;;;88.70;31.83;;;;;;;;;;5053749;28;19920;-74
2022/12/21 10:12:55;;;;;;;104.75;33.67;;;;;;;;;;5054014;28;20473;-74
2022/12/21 10:15:36;;;;;;;96.35;33.95;;;;;;;;;;5052828;28;20387;-74
2022/12/21 10:18:12;;;;;;;91.20;33.10;;;;;;;;;;5053720;28;20049;-74
2022/12/21 10:20:57;;;;;;;93.82;34.05;;;;;;;;;;5053775;28;20049;-74
2022/12/21 10:23:26;;;;;;;87.75;35.22;;;;;;;;;;5052417;28;20048;-74
2022/12/21 10:25:59;;;;;;;91.45;35.95;;;;;;;;;;5052644;28;20049;-75
2022/12/21 10:28:45;;;;;;;84.70;31.83;;;;;;;;;;5046343;28;20060;-74
2022/12/21 10:31:15;;;;;;;83.75;33.30;;;;;;;;;;5025756;28;20091;-74
2022/12/21 10:33:42;;;;;;;78.80;31.42;;;;;;;;;;5046756;28;20490;-73
2022/12/21 10:36:14;;;;;;;82.93;31.95;;;;;;;;;;5051042;28;20063;-74
2022/12/21 10:38:40;;;;;;;86.85;34.40;;;;;;;;;;5048336;28;20041;-74
2022/12/21 10:41:13;;;;;;;78.03;31.77;;;;;;;;;;5034158;28;20041;-74
2022/12/21 10:43:40;;;;;;;75.43;33.15;;;;;;;;;;5053694;28;20049;-74
2022/12/21 10:46:06;;;;;;;81.53;32.28;;;;;;;;;;5052133;28;20415;-79
2022/12/21 10:48:33;;;;;;;75.75;32.17;;;;;;;;;;5053312;28;20353;-77
2022/12/21 10:51:13;;;;;;;71.95;31.95;;;;;;;;;;5053032;28;20045;-77
2022/12/21 10:53:39;;;;;;;73.13;32.55;;;;;;;;;;5051143;28;20045;-77
2022/12/21 10:56:06;;;;;;;77.60;32.42;;;;;;;;;;5053753;28;20088;-77
2022/12/21 10:58:34;;;;;;;70.95;31.00;;;;;;;;;;5048403;28;20049;-77
2022/12/21 11:01:16;;;;;;;71.68;30.75;;;;;;;;;;5051840;28;20045;-77
2022/12/21 11:03:42;;;;;;;68.38;30.67;;;;;;;;;;5052778;28;20040;-77
2022/12/21 11:06:19;;;;;;;68.20;30.55;;;;;;;;;;5053023;28;20055;-76
2022/12/21 11:08:49;;;;;;;71.32;30.88;;;;;;;;;;5051588;28;20053;-77
2022/12/21 11:11:30;;;;;;;60.20;26.75;;;;;;;;;;5052195;28;20052;-77
2022/12/21 11:13:58;;;;;;;63.22;27.80;;;;;;;;;;5052486;28;20418;-77
2022/12/21 11:16:24;;;;;;;59.45;28.23;;;;;;;;;;5053246;28;20057;-76
2022/12/21 11:18:51;;;;;;;61.38;28.50;;;;;;;;;;5052658;28;20053;-77
2022/12/21 11:21:21;;;;;;;68.68;30.10;;;;;;;;;;5051652;28;20132;-77
2022/12/21 11:24:17;;;;;;;65.78;29.08;;;;;;;;;;5049545;28;20068;-77
2022/12/21 11:26:45;;;;;;;62.60;28.05;;;;;;;;;;5023532;28;20045;-76
2022/12/21 11:29:26;;;;;;;60.13;27.10;;;;;;;;;;5050453;28;20124;-76
2022/12/21 11:31:53;;;;;;;56.75;25.73;;;;;;;;;;5052472;28;20455;-75
2022/12/21 11:34:25;;;;;;;66.38;28.40;;;;;;;;;;5031888;28;20049;-76
2022/12/21 11:36:51;;;;;;;;;;;;;;;;;;5050412;28;20063;-76
2022/12/21 11:39:21;;;;;;;54.78;24.50;;;;;;;;;;5052284;28;20011;-75
2022/12/21 11:41:51;;;;;;;62.05;25.17;;;;;;;;;;5051476;28;20048;-77
2022/12/21 11:44:22;;;;;;;56.80;25.30;;;;;;;;;;5052373;28;20091;-77
2022/12/21 11:46:56;;;;;;;61.80;25.60;;;;;;;;;;5048817;28;20056;-76
2022/12/21 11:49:28;;;;;;;61.20;26.23;;;;;;;;;;5043673;28;20057;-76
2022/12/21 11:52:07;;;;;;;63.90;26.73;;;;;;;;;;5032615;28;20048;-76
2022/12/21 11:54:46;;;;;;;64.20;27.30;;;;;;;;;;5037435;28;20056;-76
2022/12/21 11:57:35;;;;;;;64.72;27.33;;;;;;;;;;5052662;28;20110;-76
2022/12/21 12:00:01;;;;;;;66.88;27.38;;;;;;;;;;5038099;28;20049;-76
2022/12/21 12:02:30;;;;;;;62.38;28.35;;;;;;;;;;5051872;28;20061;-76
2022/12/21 12:05:05;;;;;;;69.50;29.30;;;;;;;;;;5031792;28;20048;-76
2022/12/21 12:07:40;;;;;;;64.18;28.65;;;;;;;;;;5051050;28;20048;-77
2022/12/21 12:10:09;;;;;;;65.88;30.58;;;;;;;;;;5051979;28;20104;-76
2022/12/21 12:12:38;;;;;;;63.55;29.40;;;;;;;;;;5049764;28;20515;-76
2022/12/21 12:15:10;;;;;;;66.05;30.23;;;;;;;;;;5042588;28;20045;-77
2022/12/21 12:17:51;;;;;;;64.25;29.10;;;;;;;;;;5049515;28;20041;-76
2022/12/21 12:20:18;;;;;;;;;;;;;;;;;;5050217;28;20033;-76
2022/12/21 12:22:56;;;;;;;68.35;30.30;;;;;;;;;;5049567;28;19927;-76
2022/12/21 12:25:38;;;;;;;67.13;31.75;;;;;;;;;;5049300;28;20410;-76
2022/12/21 12:28:10;;;;;;;65.88;31.77;;;;;;;;;;5040737;28;20519;-76
2022/12/21 12:30:45;;;;;;;66.43;31.02;;;;;;;;;;5043727;28;20045;-76
2022/12/21 12:33:11;;;;;;;68.95;31.63;;;;;;;;;;5050496;28;20044;-77
2022/12/21 12:35:37;;;;;;;70.82;33.13;;;;;;;;;;5051877;28;20044;-76
2022/12/21 12:38:06;;;;;;;67.70;32.38;;;;;;;;;;5050150;28;20041;-76
2022/12/21 12:40:42;;;;;;;72.85;31.58;;;;;;;;;;5050354;28;20099;-76
2022/12/21 12:43:20;;;;;;;72.22;33.58;;;;;;;;;;5037772;28;20415;-76
2022/12/21 12:46:01;;;;;;;72.22;33.30;;;;;;;;;;5049996;28;20539;-76
2022/12/21 12:48:37;;;;;;;74.00;33.10;;;;;;;;;;5041104;28;20033;-76
2022/12/21 12:51:03;;;;;;;71.35;33.72;;;;;;;;;;5033882;28;20061;-76
2022/12/21 12:53:35;;;;;;;70.95;33.08;;;;;;;;;;5051787;28;20106;-76
2022/12/21 12:56:01;;;;;;;69.32;32.38;;;;;;;;;;5049871;28;20069;-75
2022/12/21 12:58:44;;;;;;;66.93;31.95;;;;;;;;;;5051577;28;20084;-76
2022/12/21 13:01:21;;;;;;;73.45;32.10;;;;;;;;;;5049401;28;20053;-75
2022/12/21 13:03:50;;;;;;;68.93;32.35;;;;;;;;;;5048494;28;20056;-76
2022/12/21 13:06:24;;;;;;;71.25;31.60;;;;;;;;;;5049227;28;20052;-76
2022/12/21 13:08:54;;;;;;;72.30;30.55;;;;;;;;;;5050055;28;20083;-76
2022/12/21 13:11:33;;;;;;;79.72;36.00;;;;;;;;;;5054451;28;20052;-77
2022/12/21 13:14:09;;;;;;;79.53;37.20;;;;;;;;;;5055408;28;20049;-73
2022/12/21 13:16:43;;;;;;;78.85;35.50;;;;;;;;;;5032292;28;20091;-74
2022/12/21 13:19:11;;;;;;;71.00;33.53;;;;;;;;;;5046872;28;20041;-74
2022/12/21 13:21:39;;;;;;;69.07;31.83;;;;;;;;;;5053898;28;20037;-74
2022/12/21 13:24:14;;;;;;;71.57;34.60;;;;;;;;;;5053601;28;20049;-74
2022/12/21 13:26:44;;;;;;;67.35;31.85;;;;;;;;;;5055037;28;20045;-74
2022/12/21 13:29:16;;;;;;;69.35;32.10;;;;;;;;;;5051845;28;20132;-73
2022/12/21 13:31:50;;;;;;;63.17;32.00;;;;;;;;;;5050729;28;20137;-74
2022/12/21 13:34:48;;;;;;;65.03;30.92;;;;;;;;;;5054079;28;20208;-74
2022/12/21 13:37:17;;;;;;;64.70;31.48;;;;;;;;;;4952278;28;20149;-73
2022/12/21 13:39:48;;;;;;;59.58;31.85;;;;;;;;;;4964876;28;20067;-74
2022/12/21 13:42:25;;;;;;;77.38;33.58;;;;;;;;;;4959138;28;20046;-74
2022/12/21 13:44:55;;;;;;;62.65;31.33;;;;;;;;;;4945699;28;20489;-74
2022/12/21 13:47:22;;;;;;;62.50;32.17;;;;;;;;;;4973408;28;20102;-74
2022/12/21 13:49:58;;;;;;;58.17;30.30;;;;;;;;;;4963181;28;20159;-73
2022/12/21 13:52:43;;;;;;;59.42;31.83;;;;;;;;;;4973156;28;20035;-74
2022/12/21 13:55:27;;;;;;;55.67;30.63;;;;;;;;;;4961240;28;20058;-74
2022/12/21 13:58:16;;;;;;;56.67;32.47;;;;;;;;;;4953641;28;20421;-74
2022/12/21 14:00:48;;;;;;;64.38;33.00;;;;;;;;;;4955136;28;20054;-74
2022/12/21 14:03:27;;;;;;;58.20;32.10;;;;;;;;;;4954145;28;20473;-74
2022/12/21 14:05:53;;;;;;;59.05;33.05;;;;;;;;;;4965249;28;20431;-74
2022/12/21 14:08:19;;;;;;;62.22;33.13;;;;;;;;;;4967294;28;20039;-74
2022/12/21 14:10:57;;;;;;;59.42;32.97;;;;;;;;;;4961652;28;20134;-74
2022/12/21 14:13:32;;;;;;;54.60;31.25;;;;;;;;;;5003841;28;20064;-74
2022/12/21 14:15:59;;;;;;;54.80;31.55;;;;;;;;;;5044956;28;20049;-74
2022/12/21 14:18:34;;;;;;;61.03;31.75;;;;;;;;;;5053392;28;20499;-74
2022/12/21 14:21:01;;;;;;;53.40;31.10;;;;;;;;;;5054040;28;20048;-74
2022/12/21 14:23:32;;;;;;;54.58;30.30;;;;;;;;;;5053331;28;20106;-74
2022/12/21 14:25:58;;;;;;;49.92;30.00;;;;;;;;;;5052776;28;20048;-74
2022/12/21 14:28:27;;;;;;;53.28;28.65;;;;;;;;;;5052773;28;20048;-74
2022/12/21 14:31:02;;;;;;;47.58;28.98;;;;;;;;;;5052887;28;20057;-74
2022/12/21 14:33:30;;;;;;;45.95;29.23;;;;;;;;;;5051184;28;20076;-74
2022/12/21 14:36:11;;;;;;;47.92;28.98;;;;;;;;;;5051999;28;20060;-74